createdAt,value
2023-05-15T00:00:50.619Z,406.00
2023-05-15T00:01:50.632Z,406.00
2023-05-15T00:02:50.736Z,405.00
2023-05-15T00:03:50.722Z,408.00
2023-05-15T00:04:50.694Z,412.00
2023-05-15T00:05:50.638Z,411.00
2023-05-15T00:06:50.631Z,411.00
2023-05-15T00:07:50.626Z,411.00
2023-05-15T00:08:50.633Z,413.00
2023-05-15T00:09:50.633Z,413.00
2023-05-15T00:11:00.654Z,413.00
2023-05-15T00:11:50.658Z,414.00
2023-05-15T00:12:50.624Z,411.00
2023-05-15T00:13:50.626Z,409.00
2023-05-15T00:14:50.618Z,410.00
2023-05-15T00:15:50.653Z,407.00
2023-05-15T00:16:50.595Z,405.00
2023-05-15T00:17:50.633Z,407.00
2023-05-15T00:18:50.626Z,405.00
2023-05-15T00:19:50.580Z,403.00
2023-05-15T00:20:50.561Z,402.00
2023-05-15T00:21:50.554Z,402.00
2023-05-15T00:22:50.541Z,402.00
2023-05-15T00:23:50.547Z,402.00
2023-05-15T00:24:50.569Z,402.00
2023-05-15T00:25:50.547Z,403.00
2023-05-15T00:26:51.440Z,401.00
2023-05-15T00:27:50.553Z,399.00
2023-05-15T00:28:50.502Z,398.00
2023-05-15T00:29:50.500Z,400.00
2023-05-15T00:30:50.509Z,401.00
2023-05-15T00:31:50.597Z,403.00
2023-05-15T00:32:50.516Z,400.00
2023-05-15T00:33:50.481Z,402.00
2023-05-15T00:34:50.467Z,404.00
2023-05-15T00:35:50.460Z,406.00
2023-05-15T00:36:50.449Z,407.00
2023-05-15T00:37:50.443Z,408.00
2023-05-15T00:38:50.440Z,410.00
2023-05-15T00:39:50.437Z,410.00
2023-05-15T00:40:50.424Z,412.00
2023-05-15T00:41:50.420Z,413.00
2023-05-15T00:42:50.412Z,414.00
2023-05-15T00:43:50.430Z,413.00
2023-05-15T00:44:50.399Z,413.00
2023-05-15T00:45:50.392Z,411.00
2023-05-15T00:46:50.412Z,410.00
2023-05-15T00:47:50.432Z,409.00
2023-05-15T00:48:50.385Z,408.00
2023-05-15T00:49:50.372Z,408.00
2023-05-15T00:50:50.372Z,409.00
2023-05-15T00:51:50.359Z,408.00
2023-05-15T00:52:50.349Z,405.00
2023-05-15T00:53:50.344Z,406.00
2023-05-15T00:54:50.332Z,406.00
2023-05-15T00:55:50.332Z,406.00
2023-05-15T00:56:50.319Z,403.00
2023-05-15T00:57:50.310Z,402.00
2023-05-15T00:58:50.322Z,402.00
2023-05-15T00:59:50.323Z,403.00
2023-05-15T01:00:50.351Z,401.00
2023-05-15T01:01:50.279Z,400.00
2023-05-15T01:02:50.362Z,400.00
2023-05-15T01:03:50.271Z,402.00
2023-05-15T01:04:50.273Z,401.00
2023-05-15T01:05:50.271Z,402.00
2023-05-15T01:06:50.257Z,401.00
2023-05-15T01:07:50.243Z,400.00
2023-05-15T01:08:50.250Z,399.00
2023-05-15T01:09:50.247Z,401.00
2023-05-15T01:10:50.218Z,401.00
2023-05-15T01:11:50.223Z,399.00
2023-05-15T01:12:50.214Z,399.00
2023-05-15T01:13:50.209Z,399.00
2023-05-15T01:14:50.200Z,401.00
2023-05-15T01:15:50.236Z,402.00
2023-05-15T01:16:50.174Z,401.00
2023-05-15T01:17:50.202Z,402.00
2023-05-15T01:18:50.273Z,402.00
2023-05-15T01:19:50.324Z,402.00
2023-05-15T01:20:50.203Z,401.00
2023-05-15T01:21:50.227Z,402.00
2023-05-15T01:22:50.219Z,403.00
2023-05-15T01:23:50.228Z,404.00
2023-05-15T01:24:50.271Z,403.00
2023-05-15T01:25:50.248Z,403.00
2023-05-15T01:26:50.256Z,402.00
2023-05-15T01:27:50.260Z,401.00
2023-05-15T01:28:50.265Z,401.00
2023-05-15T01:29:50.277Z,403.00
2023-05-15T01:30:50.294Z,402.00
2023-05-15T01:31:50.399Z,401.00
2023-05-15T01:32:50.340Z,403.00
2023-05-15T01:33:50.323Z,403.00
2023-05-15T01:34:50.327Z,403.00
2023-05-15T01:35:50.335Z,403.00
2023-05-15T01:36:50.343Z,404.00
2023-05-15T01:37:50.347Z,404.00
2023-05-15T01:38:50.369Z,406.00
2023-05-15T01:39:50.378Z,406.00
2023-05-15T01:40:50.412Z,407.00
2023-05-15T01:41:50.402Z,407.00
2023-05-15T01:42:50.424Z,405.00
2023-05-15T01:43:50.458Z,406.00
2023-05-15T01:44:50.449Z,406.00
2023-05-15T01:45:50.469Z,406.00
2023-05-15T01:46:50.568Z,404.00
2023-05-15T01:47:50.563Z,405.00
2023-05-15T01:48:50.522Z,405.00
2023-05-15T01:49:50.534Z,408.00
2023-05-15T01:50:50.575Z,410.00
2023-05-15T01:51:50.573Z,410.00
2023-05-15T01:52:50.645Z,410.00
2023-05-15T01:53:50.610Z,410.00
2023-05-15T01:54:50.617Z,410.00
2023-05-15T01:55:50.653Z,408.00
2023-05-15T01:56:50.679Z,408.00
2023-05-15T01:57:50.663Z,407.00
2023-05-15T01:58:50.678Z,407.00
2023-05-15T01:59:50.693Z,406.00
2023-05-15T02:00:50.726Z,406.00
2023-05-15T02:01:50.835Z,407.00
2023-05-15T02:02:50.879Z,406.00
2023-05-15T02:03:50.970Z,403.00
2023-05-15T02:04:50.841Z,401.00
2023-05-15T02:05:50.800Z,401.00
2023-05-15T02:06:50.820Z,402.00
2023-05-15T02:07:50.857Z,404.00
2023-05-15T02:08:50.861Z,405.00
2023-05-15T02:09:50.887Z,408.00
2023-05-15T02:10:50.902Z,411.00
2023-05-15T02:11:50.903Z,411.00
2023-05-15T02:12:50.916Z,412.00
2023-05-15T02:13:50.952Z,413.00
2023-05-15T02:14:50.947Z,415.00
2023-05-15T02:15:50.994Z,412.00
2023-05-15T02:16:50.977Z,412.00
2023-05-15T02:17:51.045Z,411.00
2023-05-15T02:18:51.040Z,410.00
2023-05-15T02:19:51.053Z,408.00
2023-05-15T02:20:51.043Z,404.00
2023-05-15T02:21:51.063Z,402.00
2023-05-15T02:22:51.078Z,400.00
2023-05-15T02:23:51.107Z,398.00
2023-05-15T02:24:51.100Z,399.00
2023-05-15T02:25:51.131Z,398.00
2023-05-15T02:26:51.172Z,399.00
2023-05-15T02:27:51.148Z,400.00
2023-05-15T02:28:51.157Z,399.00
2023-05-15T02:29:51.182Z,400.00
2023-05-15T02:30:51.197Z,400.00
2023-05-15T02:31:51.284Z,400.00
2023-05-15T02:32:51.282Z,401.00
2023-05-15T02:33:51.279Z,401.00
2023-05-15T02:34:51.299Z,401.00
2023-05-15T02:35:51.378Z,400.00
2023-05-15T02:36:51.321Z,398.00
2023-05-15T02:37:51.336Z,401.00
2023-05-15T02:38:51.347Z,401.00
2023-05-15T02:39:51.368Z,402.00
2023-05-15T02:40:51.389Z,403.00
2023-05-15T02:41:51.397Z,403.00
2023-05-15T02:42:51.421Z,404.00
2023-05-15T02:43:51.432Z,402.00
2023-05-15T02:44:51.463Z,403.00
2023-05-15T02:45:51.490Z,404.00
2023-05-15T02:46:51.499Z,405.00
2023-05-15T02:47:51.573Z,405.00
2023-05-15T02:48:51.530Z,403.00
2023-05-15T02:49:51.542Z,402.00
2023-05-15T02:50:51.561Z,404.00
2023-05-15T02:51:51.607Z,403.00
2023-05-15T02:52:51.609Z,402.00
2023-05-15T02:53:51.617Z,405.00
2023-05-15T02:54:52.002Z,405.00
2023-05-15T02:55:52.062Z,403.00
2023-05-15T02:56:52.065Z,402.00
2023-05-15T02:57:52.054Z,401.00
2023-05-15T02:58:52.060Z,401.00
2023-05-15T02:59:52.063Z,402.00
2023-05-15T03:00:52.090Z,406.00
2023-05-15T03:01:52.058Z,408.00
2023-05-15T03:02:52.082Z,408.00
2023-05-15T03:03:52.118Z,406.00
2023-05-15T03:04:52.074Z,406.00
2023-05-15T03:05:52.064Z,406.00
2023-05-15T03:06:52.079Z,406.00
2023-05-15T03:07:52.108Z,407.00
2023-05-15T03:08:52.081Z,408.00
2023-05-15T03:09:52.068Z,407.00
2023-05-15T03:10:52.443Z,406.00
2023-05-15T03:11:52.077Z,408.00
2023-05-15T03:12:52.071Z,409.00
2023-05-15T03:13:52.074Z,407.00
2023-05-15T03:14:52.062Z,409.00
2023-05-15T03:15:52.078Z,410.00
2023-05-15T03:16:52.165Z,409.00
2023-05-15T03:17:52.157Z,408.00
2023-05-15T03:18:52.131Z,405.00
2023-05-15T03:19:52.084Z,404.00
2023-05-15T03:20:52.093Z,401.00
2023-05-15T03:21:52.124Z,400.00
2023-05-15T03:22:52.139Z,401.00
2023-05-15T03:23:52.187Z,399.00
2023-05-15T03:24:52.183Z,397.00
2023-05-15T03:25:52.209Z,396.00
2023-05-15T03:26:52.215Z,395.00
2023-05-15T03:27:52.232Z,395.00
2023-05-15T03:28:52.255Z,395.00
2023-05-15T03:29:52.268Z,398.00
2023-05-15T03:30:52.316Z,400.00
2023-05-15T03:31:52.396Z,401.00
2023-05-15T03:32:52.418Z,402.00
2023-05-15T03:33:52.366Z,401.00
2023-05-15T03:34:52.389Z,400.00
2023-05-15T03:35:52.424Z,400.00
2023-05-15T03:36:52.497Z,400.00
2023-05-15T03:37:52.472Z,401.00
2023-05-15T03:38:52.483Z,400.00
2023-05-15T03:39:52.521Z,397.00
2023-05-15T03:40:52.513Z,395.00
2023-05-15T03:41:52.544Z,397.00
2023-05-15T03:42:52.561Z,396.00
2023-05-15T03:43:52.594Z,398.00
2023-05-15T03:44:52.617Z,398.00
2023-05-15T03:45:52.646Z,396.00
2023-05-15T03:46:52.830Z,396.00
2023-05-15T03:47:53.072Z,397.00
2023-05-15T03:48:53.091Z,396.00
2023-05-15T03:49:53.087Z,394.00
2023-05-15T03:50:53.089Z,396.00
2023-05-15T03:51:53.089Z,396.00
2023-05-15T03:52:53.103Z,395.00
2023-05-15T03:53:53.086Z,396.00
2023-05-15T03:54:53.089Z,396.00
2023-05-15T03:55:53.114Z,395.00
2023-05-15T03:56:53.096Z,397.00
2023-05-15T03:57:53.088Z,397.00
2023-05-15T03:58:53.085Z,397.00
2023-05-15T03:59:53.090Z,397.00
2023-05-15T04:00:53.085Z,395.00
2023-05-15T04:02:04.257Z,397.00
2023-05-15T04:02:53.149Z,400.00
2023-05-15T04:03:53.110Z,402.00
2023-05-15T04:04:53.170Z,403.00
2023-05-15T04:05:53.086Z,404.00
2023-05-15T04:06:53.110Z,403.00
2023-05-15T04:07:53.093Z,404.00
2023-05-15T04:08:53.092Z,402.00
2023-05-15T04:09:53.090Z,400.00
2023-05-15T04:10:53.103Z,400.00
2023-05-15T04:11:53.128Z,402.00
2023-05-15T04:12:53.101Z,399.00
2023-05-15T04:13:53.103Z,401.00
2023-05-15T04:14:53.102Z,401.00
2023-05-15T04:15:53.277Z,398.00
2023-05-15T04:16:53.137Z,396.00
2023-05-15T04:17:53.186Z,401.00
2023-05-15T04:18:53.126Z,403.00
2023-05-15T04:19:53.131Z,403.00
2023-05-15T04:20:53.106Z,404.00
2023-05-15T04:21:53.154Z,403.00
2023-05-15T04:22:53.105Z,403.00
2023-05-15T04:23:53.112Z,401.00
2023-05-15T04:24:53.101Z,401.00
2023-05-15T04:25:53.142Z,401.00
2023-05-15T04:26:53.158Z,403.00
2023-05-15T04:27:53.152Z,404.00
2023-05-15T04:29:03.507Z,405.00
2023-05-15T04:29:53.130Z,403.00
2023-05-15T04:30:53.104Z,404.00
2023-05-15T04:31:53.147Z,404.00
2023-05-15T04:32:53.156Z,405.00
2023-05-15T04:33:53.125Z,403.00
2023-05-15T04:34:53.117Z,404.00
2023-05-15T04:35:53.111Z,405.00
2023-05-15T04:36:53.110Z,405.00
2023-05-15T04:37:53.110Z,404.00
2023-05-15T04:38:53.110Z,406.00
2023-05-15T04:39:53.104Z,406.00
2023-05-15T04:40:53.108Z,406.00
2023-05-15T04:41:53.065Z,405.00
2023-05-15T04:42:53.095Z,403.00
2023-05-15T04:43:52.789Z,403.00
2023-05-15T04:44:52.698Z,403.00
2023-05-15T04:45:52.736Z,400.00
2023-05-15T04:46:52.691Z,402.00
2023-05-15T04:47:52.744Z,404.00
2023-05-15T04:48:52.693Z,402.00
2023-05-15T04:49:52.674Z,401.00
2023-05-15T04:50:52.675Z,403.00
2023-05-15T04:51:52.654Z,403.00
2023-05-15T04:52:52.652Z,402.00
2023-05-15T04:53:52.667Z,403.00
2023-05-15T04:54:52.676Z,402.00
2023-05-15T04:55:52.638Z,403.00
2023-05-15T04:56:52.646Z,400.00
2023-05-15T04:57:52.615Z,400.00
2023-05-15T04:58:52.605Z,400.00
2023-05-15T04:59:52.682Z,401.00
2023-05-15T05:00:52.587Z,401.00
2023-05-15T05:01:52.585Z,402.00
2023-05-15T05:02:52.641Z,402.00
2023-05-15T05:03:52.669Z,403.00
2023-05-15T05:04:52.607Z,403.00
2023-05-15T05:05:52.624Z,404.00
2023-05-15T05:06:53.147Z,405.00
2023-05-15T05:07:52.680Z,407.00
2023-05-15T05:08:52.702Z,406.00
2023-05-15T05:09:53.098Z,406.00
2023-05-15T05:10:53.147Z,406.00
2023-05-15T05:11:52.794Z,405.00
2023-05-15T05:12:52.813Z,406.00
2023-05-15T05:13:52.857Z,405.00
2023-05-15T05:14:52.877Z,406.00
2023-05-15T05:15:52.985Z,404.00
2023-05-15T05:16:52.952Z,407.00
2023-05-15T05:17:52.973Z,405.00
2023-05-15T05:18:53.071Z,404.00
2023-05-15T05:19:53.019Z,404.00
2023-05-15T05:20:53.085Z,405.00
2023-05-15T05:21:53.566Z,406.00
2023-05-15T05:22:53.101Z,409.00
2023-05-15T05:23:53.141Z,414.00
2023-05-15T05:24:53.173Z,417.00
2023-05-15T05:25:53.168Z,432.00
2023-05-15T05:26:53.567Z,442.00
2023-05-15T05:27:53.226Z,445.00
2023-05-15T05:28:53.555Z,446.00
2023-05-15T05:29:53.312Z,455.00
2023-05-15T05:30:53.389Z,460.00
2023-05-15T05:31:53.638Z,464.00
2023-05-15T05:32:53.436Z,466.00
2023-05-15T05:33:53.637Z,465.00
2023-05-15T05:34:53.432Z,462.00
2023-05-15T05:35:53.435Z,461.00
2023-05-15T05:36:53.570Z,460.00
2023-05-15T05:37:53.477Z,459.00
2023-05-15T05:38:53.568Z,459.00
2023-05-15T05:39:53.543Z,459.00
2023-05-15T05:40:53.576Z,461.00
2023-05-15T05:41:54.068Z,463.00
2023-05-15T05:42:53.659Z,467.00
2023-05-15T05:43:53.705Z,468.00
2023-05-15T05:44:53.745Z,468.00
2023-05-15T05:45:53.790Z,468.00
2023-05-15T05:46:54.244Z,472.00
2023-05-15T05:47:53.963Z,478.00
2023-05-15T05:48:53.953Z,484.00
2023-05-15T05:49:55.025Z,492.00
2023-05-15T05:50:54.105Z,495.00
2023-05-15T05:51:54.640Z,496.00
2023-05-15T05:52:54.210Z,501.00
2023-05-15T05:53:55.291Z,513.00
2023-05-15T05:54:54.331Z,520.00
2023-05-15T05:55:54.405Z,522.00
2023-05-15T05:56:54.568Z,525.00
2023-05-15T05:57:54.565Z,533.00
2023-05-15T06:00:01.896Z,526.00
2023-05-15T06:00:54.568Z,496.00
2023-05-15T06:02:26.387Z,509.00
2023-05-15T06:02:54.696Z,521.00
2023-05-15T06:03:54.676Z,527.00
2023-05-15T06:05:10.121Z,529.00
2023-05-15T06:05:57.665Z,527.00
2023-05-15T06:07:54.458Z,653.00
2023-05-15T06:09:10.040Z,675.00
2023-05-15T06:10:01.871Z,695.00
2023-05-15T06:11:01.814Z,746.00
2023-05-15T06:11:57.939Z,765.00
2023-05-15T06:12:54.452Z,777.00
2023-05-15T06:14:26.192Z,791.00
2023-05-15T06:14:54.401Z,808.00
2023-05-15T06:15:54.382Z,841.00
2023-05-15T06:16:54.465Z,850.00
2023-05-15T06:17:54.401Z,864.00
2023-05-15T06:18:55.438Z,871.00
2023-05-15T06:19:54.384Z,884.00
2023-05-15T06:20:54.353Z,900.00
2023-05-15T06:21:54.572Z,915.00
2023-05-15T06:23:02.085Z,931.00
2023-05-15T06:23:54.324Z,941.00
2023-05-15T06:24:54.318Z,1002.00
2023-05-15T06:25:54.341Z,1037.00
2023-05-15T06:26:54.602Z,1053.00
2023-05-15T06:28:09.923Z,1065.00
2023-05-15T06:28:54.332Z,1075.00
2023-05-15T06:29:54.285Z,1094.00
2023-05-15T06:30:54.309Z,1118.00
2023-05-15T06:31:54.575Z,1131.00
2023-05-15T06:32:54.637Z,1151.00
2023-05-15T06:33:54.260Z,1164.00
2023-05-15T06:34:54.240Z,1179.00
2023-05-15T06:35:54.448Z,1197.00
2023-05-15T06:36:54.574Z,1218.00
2023-05-15T06:37:55.378Z,1239.00
2023-05-15T06:38:54.210Z,1257.00
2023-05-15T06:39:54.218Z,1311.00
2023-05-15T06:40:54.611Z,1322.00
2023-05-15T06:42:10.171Z,1333.00
2023-05-15T06:43:01.588Z,1345.00
2023-05-15T06:44:01.981Z,1363.00
2023-05-15T06:44:54.214Z,1378.00
2023-05-15T06:45:54.210Z,1398.00
2023-05-15T06:46:54.613Z,1409.00
2023-05-15T06:47:54.210Z,1425.00
2023-05-15T06:48:54.228Z,1446.00
2023-05-15T06:49:55.127Z,1470.00
2023-05-15T06:50:54.155Z,1486.00
2023-05-15T06:51:54.614Z,1501.00
2023-05-15T06:52:54.108Z,1526.00
2023-05-15T06:53:54.599Z,1544.00
2023-05-15T06:54:54.819Z,1562.00
2023-05-15T06:55:54.105Z,1579.00
2023-05-15T06:56:54.595Z,1604.00
2023-05-15T06:57:54.212Z,1621.00
2023-05-15T06:59:54.074Z,1640.00
2023-05-15T07:01:01.524Z,1646.00
2023-05-15T07:01:57.349Z,1656.00
2023-05-15T07:02:55.261Z,1666.00
2023-05-15T07:03:54.205Z,1674.00
2023-05-15T07:04:54.247Z,1689.00
2023-05-15T07:05:54.086Z,1700.00
2023-05-15T07:07:01.466Z,1719.00
2023-05-15T07:07:54.066Z,1741.00
2023-05-15T07:08:54.134Z,1758.00
2023-05-15T07:09:54.196Z,1774.00
2023-05-15T07:10:54.104Z,1789.00
2023-05-15T07:11:54.018Z,1813.00
2023-05-15T07:12:54.016Z,1825.00
2023-05-15T07:13:53.989Z,1839.00
2023-05-15T07:14:53.961Z,1856.00
2023-05-15T07:15:54.093Z,1875.00
2023-05-15T07:16:53.948Z,1888.00
2023-05-15T07:17:55.058Z,1898.00
2023-05-15T07:18:54.040Z,1917.00
2023-05-15T07:19:53.951Z,1936.00
2023-05-15T07:20:54.621Z,1953.00
2023-05-15T07:21:54.204Z,1966.00
2023-05-15T07:22:56.837Z,1981.00
2023-05-15T07:23:53.889Z,2000.00
2023-05-15T07:24:53.878Z,2020.00
2023-05-15T07:25:53.882Z,2033.00
2023-05-15T07:26:58.868Z,2046.00
2023-05-15T07:27:54.896Z,2061.00
2023-05-15T07:28:53.854Z,2073.00
2023-05-15T07:29:54.264Z,2083.00
2023-05-15T07:30:54.359Z,2099.00
2023-05-15T07:31:54.393Z,2123.00
2023-05-15T07:32:53.869Z,2127.00
2023-05-15T07:33:57.060Z,2116.00
2023-05-15T07:34:53.820Z,2105.00
2023-05-15T07:36:53.784Z,2044.00
2023-05-15T07:37:53.825Z,2049.00
2023-05-15T07:38:57.078Z,2060.00
2023-05-15T07:39:53.804Z,2074.00
2023-05-15T07:40:53.748Z,2099.00
2023-05-15T07:41:54.230Z,2162.00
2023-05-15T07:42:55.218Z,2187.00
2023-05-15T07:43:53.798Z,2203.00
2023-05-15T07:44:53.782Z,2209.00
2023-05-15T07:45:53.901Z,2223.00
2023-05-15T07:46:53.828Z,2233.00
2023-05-15T07:47:54.180Z,2250.00
2023-05-15T07:48:53.819Z,2269.00
2023-05-15T07:49:54.984Z,2270.00
2023-05-15T07:50:53.908Z,2284.00
2023-05-15T07:51:54.218Z,2297.00
2023-05-15T07:52:57.812Z,2313.00
2023-05-15T07:54:26.295Z,2334.00
2023-05-15T07:54:53.926Z,2366.00
2023-05-15T07:55:57.120Z,2407.00
2023-05-15T07:56:57.300Z,2427.00
2023-05-15T07:57:57.308Z,2444.00
2023-05-15T07:59:09.570Z,2460.00
2023-05-15T07:59:57.152Z,2478.00
2023-05-15T08:00:53.888Z,2488.00
2023-05-15T08:01:57.507Z,2499.00
2023-05-15T08:02:54.178Z,2514.00
2023-05-15T08:03:53.923Z,2514.00
2023-05-15T08:04:53.853Z,2508.00
2023-05-15T08:05:53.840Z,2495.00
2023-05-15T08:06:53.832Z,2408.00
2023-05-15T08:07:54.120Z,2296.00
2023-05-15T08:08:53.817Z,1941.00
2023-05-15T08:09:53.944Z,1937.00
2023-05-15T08:10:53.801Z,2069.00
2023-05-15T08:11:53.789Z,2012.00
2023-05-15T08:12:54.124Z,1926.00
2023-05-15T08:13:53.793Z,1893.00
2023-05-15T08:14:53.755Z,1707.00
2023-05-15T08:15:53.795Z,1556.00
2023-05-15T08:16:53.745Z,1485.00
2023-05-15T08:17:54.150Z,1480.00
2023-05-15T08:18:53.797Z,1444.00
2023-05-15T08:19:53.728Z,1482.00
2023-05-15T08:20:53.712Z,1426.00
2023-05-15T08:21:53.700Z,1359.00
2023-05-15T08:22:53.695Z,1340.00
2023-05-15T08:23:53.940Z,1327.00
2023-05-15T08:24:53.686Z,1295.00
2023-05-15T08:25:53.692Z,1278.00
2023-05-15T08:26:53.663Z,1269.00
2023-05-15T08:27:54.112Z,1269.00
2023-05-15T08:28:54.647Z,1266.00
2023-05-15T08:29:57.447Z,1205.00
2023-05-15T08:30:53.701Z,1206.00
2023-05-15T08:31:53.652Z,1203.00
2023-05-15T08:32:54.203Z,1186.00
2023-05-15T08:33:53.636Z,1124.00
2023-05-15T08:34:54.128Z,1128.00
2023-05-15T08:35:53.664Z,1123.00
2023-05-15T08:36:53.620Z,1108.00
2023-05-15T08:37:53.614Z,1099.00
2023-05-15T08:38:53.603Z,1098.00
2023-05-15T08:39:53.617Z,1097.00
2023-05-15T08:40:53.582Z,1089.00
2023-05-15T08:41:53.622Z,1058.00
2023-05-15T08:42:53.570Z,1032.00
2023-05-15T08:43:56.759Z,932.00
2023-05-15T08:44:53.618Z,912.00
2023-05-15T08:45:53.553Z,908.00
2023-05-15T08:46:53.736Z,896.00
2023-05-15T08:48:01.096Z,894.00
2023-05-15T08:48:56.778Z,904.00
2023-05-15T08:49:56.796Z,906.00
2023-05-15T08:50:53.502Z,912.00
2023-05-15T08:51:53.487Z,928.00
2023-05-15T08:52:53.622Z,950.00
2023-05-15T08:53:53.493Z,962.00
2023-05-15T08:54:53.484Z,978.00
2023-05-15T08:55:53.486Z,1035.00
2023-05-15T08:56:53.465Z,1058.00
2023-05-15T08:58:01.061Z,1074.00
2023-05-15T08:58:56.647Z,1101.00
2023-05-15T08:59:53.456Z,1119.00
2023-05-15T09:00:53.425Z,1133.00
2023-05-15T09:01:53.446Z,1146.00
2023-05-15T09:02:53.700Z,1157.00
2023-05-15T09:03:53.434Z,1162.00
2023-05-15T09:04:53.652Z,1173.00
2023-05-15T09:05:53.407Z,1197.00
2023-05-15T09:06:53.406Z,1225.00
2023-05-15T09:07:53.359Z,1242.00
2023-05-15T09:08:53.372Z,1256.00
2023-05-15T09:09:53.639Z,1267.00
2023-05-15T09:10:53.340Z,1285.00
2023-05-15T09:11:53.345Z,1295.00
2023-05-15T09:12:53.367Z,1319.00
2023-05-15T09:13:53.366Z,1341.00
2023-05-15T09:14:53.636Z,1355.00
2023-05-15T09:16:53.455Z,1383.00
2023-05-15T09:17:53.381Z,1392.00
2023-05-15T09:18:53.362Z,1398.00
2023-05-15T09:19:53.298Z,1407.00
2023-05-15T09:20:55.473Z,1423.00
2023-05-15T09:21:53.256Z,1433.00
2023-05-15T09:22:53.656Z,1445.00
2023-05-15T09:23:53.347Z,1455.00
2023-05-15T09:24:53.634Z,1465.00
2023-05-15T09:25:53.990Z,1478.00
2023-05-15T09:26:53.246Z,1496.00
2023-05-15T09:27:53.211Z,1512.00
2023-05-15T09:28:53.205Z,1528.00
2023-05-15T09:29:53.236Z,1550.00
2023-05-15T09:30:53.640Z,1567.00
2023-05-15T09:31:53.238Z,1584.00
2023-05-15T09:32:53.269Z,1600.00
2023-05-15T09:34:53.169Z,1688.00
2023-05-15T09:36:53.661Z,1711.00
2023-05-15T09:37:53.648Z,1740.00
2023-05-15T09:38:53.140Z,1775.00
2023-05-15T09:39:53.400Z,1794.00
2023-05-15T09:40:53.134Z,1808.00
2023-05-15T09:41:54.136Z,1830.00
2023-05-15T09:42:53.502Z,1889.00
2023-05-15T09:43:53.453Z,1897.00
2023-05-15T09:44:53.097Z,1902.00
2023-05-15T09:45:53.226Z,1898.00
2023-05-15T09:46:53.216Z,1892.00
2023-05-15T09:47:53.260Z,1885.00
2023-05-15T09:48:53.142Z,1870.00
2023-05-15T09:49:53.080Z,1810.00
2023-05-15T09:50:53.124Z,1784.00
2023-05-15T09:51:53.140Z,1763.00
2023-05-15T09:52:53.307Z,1737.00
2023-05-15T09:53:53.235Z,1700.00
2023-05-15T09:54:53.256Z,1663.00
2023-05-15T09:55:53.656Z,1644.00
2023-05-15T09:56:53.340Z,1622.00
2023-05-15T09:57:54.644Z,1592.00
2023-05-15T09:58:53.383Z,1534.00
2023-05-15T09:59:53.428Z,1505.00
2023-05-15T10:00:53.464Z,1483.00
2023-05-15T10:01:53.579Z,1470.00
2023-05-15T10:02:53.568Z,1454.00
2023-05-15T10:03:53.589Z,1435.00
2023-05-15T10:04:53.661Z,1415.00
2023-05-15T10:05:53.701Z,1391.00
2023-05-15T10:06:53.721Z,1374.00
2023-05-15T10:07:54.403Z,1357.00
2023-05-15T10:08:53.878Z,1337.00
2023-05-15T10:09:53.868Z,1320.00
2023-05-15T10:10:53.933Z,1305.00
2023-05-15T10:11:54.377Z,1286.00
2023-05-15T10:12:54.716Z,1276.00
2023-05-15T10:13:54.377Z,1262.00
2023-05-15T10:14:54.372Z,1250.00
2023-05-15T10:15:54.151Z,1236.00
2023-05-15T10:16:54.185Z,1223.00
2023-05-15T10:17:54.746Z,1214.00
2023-05-15T10:18:54.387Z,1204.00
2023-05-15T10:19:58.353Z,1195.00
2023-05-15T10:20:54.354Z,1187.00
2023-05-15T10:21:54.402Z,1183.00
2023-05-15T10:22:55.669Z,1178.00
2023-05-15T10:23:54.663Z,1166.00
2023-05-15T10:24:54.665Z,1092.00
2023-05-15T10:25:57.808Z,1078.00
2023-05-15T10:26:55.598Z,1054.00
2023-05-15T10:27:54.595Z,1050.00
2023-05-15T10:28:54.566Z,1039.00
2023-05-15T10:29:54.668Z,1013.00
2023-05-15T10:30:54.601Z,983.00
2023-05-15T10:31:54.643Z,844.00
2023-05-15T10:32:55.174Z,850.00
2023-05-15T10:33:54.596Z,766.00
2023-05-15T10:34:54.532Z,663.00
2023-05-15T10:35:54.510Z,581.00
2023-05-15T10:36:54.504Z,581.00
2023-05-15T10:37:54.547Z,593.00
2023-05-15T10:38:54.612Z,606.00
2023-05-15T10:39:54.627Z,616.00
2023-05-15T10:41:02.725Z,627.00
2023-05-15T10:41:55.169Z,632.00
2023-05-15T10:42:54.626Z,639.00
2023-05-15T10:43:54.607Z,643.00
2023-05-15T10:44:54.604Z,652.00
2023-05-15T10:45:54.597Z,659.00
2023-05-15T10:46:54.641Z,669.00
2023-05-15T10:47:54.623Z,678.00
2023-05-15T10:48:54.730Z,682.00
2023-05-15T10:49:54.595Z,686.00
2023-05-15T10:50:54.560Z,691.00
2023-05-15T10:51:54.550Z,697.00
2023-05-15T10:52:54.556Z,701.00
2023-05-15T10:53:54.676Z,703.00
2023-05-15T10:54:54.521Z,712.00
2023-05-15T10:55:54.550Z,723.00
2023-05-15T10:56:54.672Z,751.00
2023-05-15T10:57:54.496Z,812.00
2023-05-15T10:58:54.549Z,813.00
2023-05-15T10:59:54.480Z,832.00
2023-05-15T11:00:54.560Z,981.00
2023-05-15T11:01:54.666Z,924.00
2023-05-15T11:02:54.499Z,843.00
2023-05-15T11:03:55.411Z,822.00
2023-05-15T11:04:54.438Z,825.00
2023-05-15T11:05:54.463Z,831.00
2023-05-15T11:06:54.421Z,823.00
2023-05-15T11:07:54.433Z,808.00
2023-05-15T11:08:55.186Z,800.00
2023-05-15T11:09:54.421Z,802.00
2023-05-15T11:10:54.407Z,797.00
2023-05-15T11:11:54.408Z,794.00
2023-05-15T11:12:54.376Z,790.00
2023-05-15T11:13:54.699Z,792.00
2023-05-15T11:14:54.370Z,800.00
2023-05-15T11:15:54.356Z,808.00
2023-05-15T11:16:54.408Z,817.00
2023-05-15T11:17:54.380Z,823.00
2023-05-15T11:18:54.727Z,835.00
2023-05-15T11:19:54.335Z,849.00
2023-05-15T11:20:54.678Z,866.00
2023-05-15T11:21:55.193Z,879.00
2023-05-15T11:22:54.346Z,892.00
2023-05-15T11:23:54.363Z,930.00
2023-05-15T11:24:54.814Z,992.00
2023-05-15T11:25:54.685Z,1008.00
2023-05-15T11:26:54.524Z,1028.00
2023-05-15T11:27:54.585Z,1055.00
2023-05-15T11:28:54.622Z,1072.00
2023-05-15T11:29:54.674Z,1096.00
2023-05-15T11:30:54.757Z,1117.00
2023-05-15T11:31:54.735Z,1145.00
2023-05-15T11:32:54.789Z,1170.00
2023-05-15T11:33:54.776Z,1192.00
2023-05-15T11:34:55.587Z,1211.00
2023-05-15T11:35:54.816Z,1228.00
2023-05-15T11:36:55.199Z,1293.00
2023-05-15T11:37:54.883Z,1304.00
2023-05-15T11:38:54.872Z,1318.00
2023-05-15T11:39:55.194Z,1335.00
2023-05-15T11:40:54.917Z,1352.00
2023-05-15T11:41:55.183Z,1379.00
2023-05-15T11:42:54.909Z,1405.00
2023-05-15T11:43:55.300Z,1421.00
2023-05-15T11:44:54.916Z,1437.00
2023-05-15T11:45:54.906Z,1457.00
2023-05-15T11:46:54.962Z,1481.00
2023-05-15T11:47:55.715Z,1515.00
2023-05-15T11:48:55.362Z,1533.00
2023-05-15T11:49:54.892Z,1561.00
2023-05-15T11:50:54.886Z,1602.00
2023-05-15T11:51:54.917Z,1609.00
2023-05-15T11:52:54.931Z,1624.00
2023-05-15T11:53:55.377Z,1645.00
2023-05-15T11:54:55.349Z,1664.00
2023-05-15T11:55:55.000Z,1725.00
2023-05-15T11:56:55.038Z,1741.00
2023-05-15T11:57:55.050Z,1748.00
2023-05-15T11:58:55.192Z,1757.00
2023-05-15T11:59:55.093Z,1768.00
2023-05-15T12:00:55.096Z,1789.00
2023-05-15T12:01:55.101Z,1808.00
2023-05-15T12:02:55.170Z,1834.00
2023-05-15T12:03:55.514Z,1861.00
2023-05-15T12:04:55.166Z,1874.00
2023-05-15T12:05:58.926Z,1892.00
2023-05-15T12:06:55.394Z,1910.00
2023-05-15T12:07:55.437Z,1924.00
2023-05-15T12:08:55.728Z,1938.00
2023-05-15T12:09:55.587Z,1955.00
2023-05-15T12:10:55.585Z,1970.00
2023-05-15T12:11:55.653Z,1992.00
2023-05-15T12:12:58.902Z,2023.00
2023-05-15T12:13:56.194Z,2038.00
2023-05-15T12:14:55.701Z,2060.00
2023-05-15T12:15:55.706Z,2078.00
2023-05-15T12:16:55.831Z,2092.00
2023-05-15T12:17:55.720Z,2107.00
2023-05-15T12:18:55.735Z,2127.00
2023-05-15T12:19:55.661Z,2151.00
2023-05-15T12:20:55.662Z,2180.00
2023-05-15T12:21:55.647Z,2202.00
2023-05-15T12:22:55.647Z,2213.00
2023-05-15T12:24:03.917Z,2226.00
2023-05-15T12:24:55.706Z,2245.00
2023-05-15T12:25:58.849Z,2261.00
2023-05-15T12:26:57.510Z,2273.00